Time;durP1;ratioP1;P1;durP2;ratioP2;P2;SDS_P1;SDS_P2;PMS_P1;PMS_P2;Temp;Humidity;BMP_temperature;BMP_pressure;BME280_temperature;BME280_humidity;BME280_pressure;Samples;Min_cycle;Max_cycle;Signal;HPM_P1;HPM_P2
2023/10/21 00:00:27;;;;;;;10.25;4.15;;;13.70;99.90;;;;;;5073163;28;20025;-77
2023/10/21 00:02:52;;;;;;;6.22;3.55;;;13.60;99.90;;;;;;5073137;28;20029;-77
2023/10/21 00:05:18;;;;;;;8.88;3.85;;;13.60;99.90;;;;;;5055486;28;20041;-77
2023/10/21 00:07:44;;;;;;;7.75;4.10;;;13.60;99.90;;;;;;5055582;28;20085;-77
2023/10/21 00:10:09;;;;;;;8.25;3.60;;;13.60;99.90;;;;;;5055631;28;20059;-77
2023/10/21 00:12:38;;;;;;;7.10;3.90;;;13.60;99.90;;;;;;5055541;28;20031;-77
2023/10/21 00:15:08;;;;;;;8.70;3.97;;;13.60;99.90;;;;;;5039041;28;20022;-77
2023/10/21 00:17:34;;;;;;;6.20;3.90;;;13.60;99.90;;;;;;5073021;28;20017;-77
2023/10/21 00:20:00;;;;;;;7.13;3.58;;;13.60;99.90;;;;;;5073010;28;20025;-77
2023/10/21 00:22:27;;;;;;;4.75;3.15;;;13.60;99.90;;;;;;5073012;28;20025;-76
2023/10/21 00:24:53;;;;;;;7.18;3.60;;;13.50;99.90;;;;;;5055376;28;20029;-77
2023/10/21 00:27:19;;;;;;;8.20;4.15;;;13.60;99.90;;;;;;5055314;28;20032;-77
2023/10/21 00:29:44;;;;;;;5.55;3.67;;;13.60;99.90;;;;;;5022584;28;20052;-77
2023/10/21 00:32:10;;;;;;;7.88;3.20;;;13.50;99.90;;;;;;5072830;28;20053;-77
2023/10/21 00:34:39;;;;;;;5.97;3.15;;;13.50;99.90;;;;;;5055214;28;20044;-77
2023/10/21 00:37:10;;;;;;;7.28;3.35;;;13.60;99.90;;;;;;5072962;28;20030;-77
2023/10/21 00:39:37;;;;;;;6.07;3.33;;;13.60;99.90;;;;;;5055247;28;20025;-77
2023/10/21 00:42:05;;;;;;;7.07;3.45;;;13.60;99.90;;;;;;5072781;28;20354;-77
2023/10/21 00:44:32;;;;;;;7.53;3.03;;;13.60;99.90;;;;;;5055877;28;20029;-77
2023/10/21 00:47:01;;;;;;;6.32;3.45;;;13.50;99.90;;;;;;5038618;28;20025;-77
2023/10/21 00:49:29;;;;;;;8.75;3.00;;;13.50;99.90;;;;;;5055892;28;20045;-77
2023/10/21 00:51:56;;;;;;;6.00;3.58;;;13.50;99.90;;;;;;5052432;28;20038;-77
2023/10/21 00:54:24;;;;;;;5.13;3.00;;;13.50;99.90;;;;;;5056727;28;20014;-77
2023/10/21 00:56:51;;;;;;;7.57;3.50;;;13.50;99.90;;;;;;5056664;28;20360;-77
2023/10/21 00:59:17;;;;;;;4.85;3.13;;;13.50;99.90;;;;;;5055509;28;20022;-77
2023/10/21 01:01:43;;;;;;;5.75;3.05;;;13.50;99.90;;;;;;5056376;28;20030;-77
2023/10/21 01:04:10;;;;;;;4.78;3.30;;;13.50;99.90;;;;;;5055545;28;20033;-76
2023/10/21 01:06:36;;;;;;;7.18;3.17;;;13.50;99.90;;;;;;5056347;28;20017;-77
2023/10/21 01:09:02;;;;;;;5.25;2.90;;;13.50;99.90;;;;;;5056311;28;20025;-77
2023/10/21 01:11:27;;;;;;;7.72;3.08;;;13.50;99.90;;;;;;5055241;28;20068;-77
2023/10/21 01:13:54;;;;;;;6.63;3.00;;;13.50;99.90;;;;;;5055241;28;20025;-77
2023/10/21 01:16:20;;;;;;;6.95;3.30;;;13.50;99.90;;;;;;5038863;28;20488;-77
2023/10/21 01:18:45;;;;;;;5.32;2.78;;;13.50;99.90;;;;;;5055256;28;20077;-77
2023/10/21 01:21:11;;;;;;;7.60;3.40;;;13.60;99.90;;;;;;5038579;28;20155;-77
2023/10/21 01:23:36;;;;;;;7.10;3.45;;;13.60;99.90;;;;;;5038505;28;20101;-77
2023/10/21 01:26:03;;;;;;;6.03;3.00;;;13.60;99.90;;;;;;5055957;28;20107;-77
2023/10/21 01:28:29;;;;;;;5.85;2.97;;;13.60;99.90;;;;;;5054903;28;20026;-77
2023/10/21 01:30:55;;;;;;;7.47;3.33;;;13.60;99.90;;;;;;5054919;28;20033;-77
2023/10/21 01:33:21;;;;;;;5.50;3.28;;;13.60;99.90;;;;;;5055725;28;20029;-77
2023/10/21 01:35:47;;;;;;;5.97;3.63;;;13.60;99.90;;;;;;5055701;28;20025;-77
2023/10/21 01:38:13;;;;;;;4.13;2.92;;;13.60;99.90;;;;;;5055003;28;20022;-78
2023/10/21 01:40:38;;;;;;;5.20;3.15;;;13.60;99.90;;;;;;5038244;28;20026;-77
2023/10/21 01:43:04;;;;;;;6.93;3.15;;;13.60;99.90;;;;;;5054635;28;20044;-76
2023/10/21 01:45:30;;;;;;;5.07;2.92;;;13.60;99.90;;;;;;5054659;28;20056;-77
2023/10/21 01:47:55;;;;;;;6.85;2.97;;;13.60;99.90;;;;;;5055550;28;20120;-77
2023/10/21 01:50:21;;;;;;;8.60;3.30;;;13.60;99.90;;;;;;5055540;28;20034;-77
2023/10/21 01:52:47;;;;;;;6.03;3.08;;;13.60;99.90;;;;;;5066974;28;20057;-77
2023/10/21 01:55:12;;;;;;;5.10;3.08;;;13.60;99.90;;;;;;5057777;28;20055;-77
2023/10/21 01:57:38;;;;;;;5.55;3.20;;;13.60;99.90;;;;;;5057726;28;20083;-77
2023/10/21 02:00:09;;;;;;;4.88;3.40;;;13.60;99.90;;;;;;5057630;28;20050;-77
2023/10/21 02:02:38;;;;;;;5.47;2.88;;;13.60;99.90;;;;;;5057678;28;20117;-77
2023/10/21 02:05:05;;;;;;;4.40;2.90;;;13.60;99.90;;;;;;5074562;28;20078;-77
2023/10/21 02:07:35;;;;;;;4.75;3.35;;;13.60;99.90;;;;;;5075159;28;20048;-77
2023/10/21 02:10:01;;;;;;;9.23;3.08;;;13.60;99.90;;;;;;5058274;28;20033;-77
2023/10/21 02:12:29;;;;;;;5.85;3.40;;;13.50;99.90;;;;;;5075064;28;20045;-77
2023/10/21 02:14:55;;;;;;;7.25;3.40;;;13.50;99.90;;;;;;5057532;28;20108;-77
2023/10/21 02:17:21;;;;;;;6.43;3.13;;;13.60;99.90;;;;;;5057501;28;20026;-77
2023/10/21 02:19:46;;;;;;;6.05;3.08;;;13.60;99.90;;;;;;5074982;28;20063;-77
2023/10/21 02:22:12;;;;;;;4.05;3.03;;;13.60;99.90;;;;;;5057501;28;20480;-77
2023/10/21 02:24:37;;;;;;;4.47;2.97;;;13.60;99.90;;;;;;5074894;28;20021;-77
2023/10/21 02:27:04;;;;;;;5.40;3.25;;;13.60;99.90;;;;;;5074824;28;20472;-77
2023/10/21 02:29:31;;;;;;;4.95;3.08;;;13.60;99.90;;;;;;5057098;28;20040;-77
2023/10/21 02:31:56;;;;;;;6.65;3.20;;;13.60;99.90;;;;;;5057125;28;20060;-77
2023/10/21 02:34:22;;;;;;;6.00;3.40;;;13.60;99.90;;;;;;5057049;28;20032;-77
2023/10/21 02:36:49;;;;;;;7.35;3.20;;;13.60;99.90;;;;;;5057147;28;20103;-76
2023/10/21 02:39:17;;;;;;;4.93;3.13;;;13.60;99.90;;;;;;5074552;28;20028;-77
2023/10/21 02:41:43;;;;;;;5.82;3.25;;;13.60;99.90;;;;;;5056850;28;20045;-77
2023/10/21 02:44:08;;;;;;;7.18;3.30;;;13.60;99.90;;;;;;5056771;28;20027;-76
2023/10/21 02:46:34;;;;;;;4.70;3.22;;;13.60;99.90;;;;;;5074457;28;20025;-76
2023/10/21 02:49:00;;;;;;;6.65;3.15;;;13.60;99.90;;;;;;5056774;28;20041;-76
2023/10/21 02:51:25;;;;;;;5.00;3.25;;;13.60;99.90;;;;;;5056482;28;20025;-76
2023/10/21 02:53:51;;;;;;;5.45;3.30;;;13.60;99.90;;;;;;5056696;28;20037;-76
2023/10/21 02:56:17;;;;;;;3.63;2.90;;;13.70;99.90;;;;;;5023785;28;20020;-76
2023/10/21 02:58:43;;;;;;;5.45;2.70;;;13.60;99.90;;;;;;5056772;28;20033;-77
2023/10/21 03:01:26;;;;;;;5.40;3.15;;;13.60;99.90;;;;;;5074164;28;20052;-76
2023/10/21 03:03:52;;;;;;;5.45;2.95;;;13.70;99.90;;;;;;5074147;28;20021;-77
2023/10/21 03:06:19;;;;;;;5.93;3.00;;;13.70;99.90;;;;;;5056417;28;20020;-77
2023/10/21 03:08:45;;;;;;;4.82;2.72;;;13.60;99.90;;;;;;5056456;28;20051;-77
2023/10/21 03:11:11;;;;;;;4.50;2.50;;;13.70;99.90;;;;;;5073879;28;20013;-77
2023/10/21 03:13:38;;;;;;;5.82;3.08;;;13.70;99.90;;;;;;5056377;28;20032;-76
2023/10/21 03:16:05;;;;;;;5.90;2.90;;;13.70;99.90;;;;;;5072966;28;20045;-77
2023/10/21 03:18:32;;;;;;;5.15;2.80;;;13.70;99.90;;;;;;5056437;28;20039;-77
2023/10/21 03:20:57;;;;;;;5.05;3.33;;;13.80;99.90;;;;;;5073746;28;20029;-77
2023/10/21 03:23:23;;;;;;;6.57;2.80;;;13.80;99.90;;;;;;5073715;28;20045;-77
2023/10/21 03:25:56;;;;;;;5.30;2.67;;;13.80;99.90;;;;;;5056147;28;20079;-77
2023/10/21 03:28:22;;;;;;;4.47;2.97;;;13.70;99.90;;;;;;5073658;28;20025;-77
2023/10/21 03:30:49;;;;;;;6.05;3.00;;;13.70;99.90;;;;;;5039834;28;20052;-77
2023/10/21 03:33:15;;;;;;;8.60;3.42;;;13.80;99.90;;;;;;5039297;28;20037;-77
2023/10/21 03:35:49;;;;;;;4.95;2.90;;;13.70;99.90;;;;;;5056046;28;20071;-77
2023/10/21 03:38:15;;;;;;;4.55;2.75;;;13.80;99.90;;;;;;5057513;28;20029;-77
2023/10/21 03:40:41;;;;;;;6.88;2.95;;;13.80;99.90;;;;;;5056032;28;20171;-77
2023/10/21 03:43:07;;;;;;;5.72;3.47;;;13.80;99.90;;;;;;5039311;28;20033;-77
2023/10/21 03:45:34;;;;;;;4.97;2.83;;;13.80;99.90;;;;;;5073431;28;20025;-77
2023/10/21 03:48:00;;;;;;;7.40;3.03;;;13.80;99.90;;;;;;5073345;28;20017;-77
2023/10/21 03:50:26;;;;;;;5.65;3.05;;;13.80;99.90;;;;;;5073368;28;20055;-77
2023/10/21 03:52:53;;;;;;;4.28;3.00;;;13.80;99.90;;;;;;5073092;28;20053;-77
2023/10/21 03:55:18;;;;;;;5.85;3.35;;;13.80;99.90;;;;;;5039204;28;20021;-77
2023/10/21 03:57:44;;;;;;;6.78;3.13;;;13.80;99.90;;;;;;5055719;28;20051;-77
2023/10/21 04:00:12;;;;;;;6.68;3.28;;;13.80;99.90;;;;;;5073233;28;20025;-77
2023/10/21 04:02:37;;;;;;;6.55;3.60;;;13.80;99.90;;;;;;5073212;28;20032;-77
2023/10/21 04:05:06;;;;;;;6.40;3.40;;;13.80;99.90;;;;;;5055523;28;20033;-77
2023/10/21 04:07:32;;;;;;;5.93;3.15;;;13.80;99.90;;;;;;5056180;28;20093;-77
2023/10/21 04:09:58;;;;;;;6.53;2.90;;;13.80;99.90;;;;;;5038994;28;20029;-77
2023/10/21 04:12:23;;;;;;;7.20;2.95;;;13.80;99.90;;;;;;5055557;28;20052;-76
2023/10/21 04:14:49;;;;;;;7.13;3.25;;;13.80;99.90;;;;;;5055561;28;20025;-77
2023/10/21 04:17:14;;;;;;;6.35;3.25;;;13.80;99.90;;;;;;5073172;28;20017;-77
2023/10/21 04:19:40;;;;;;;7.15;3.35;;;13.90;99.90;;;;;;5073024;28;20033;-76
2023/10/21 04:22:06;;;;;;;5.80;3.33;;;13.90;99.90;;;;;;5055364;28;20100;-77
2023/10/21 04:24:31;;;;;;;5.45;3.60;;;13.90;99.90;;;;;;5039217;28;20029;-76
2023/10/21 04:26:57;;;;;;;6.63;3.33;;;13.90;99.90;;;;;;5056421;28;20454;-77
2023/10/21 04:29:22;;;;;;;5.45;3.08;;;13.90;99.90;;;;;;5059483;28;20036;-77
2023/10/21 04:31:48;;;;;;;5.63;2.97;;;13.90;99.90;;;;;;5059281;28;20040;-77
2023/10/21 04:34:14;;;;;;;5.35;3.05;;;13.90;99.90;;;;;;5059417;28;20086;-77
2023/10/21 04:36:40;;;;;;;9.32;3.70;;;13.80;99.90;;;;;;5077056;28;20025;-76
2023/10/21 04:39:07;;;;;;;8.60;3.03;;;13.80;99.90;;;;;;5042804;28;20507;-77
2023/10/21 04:41:32;;;;;;;5.70;3.30;;;13.90;99.90;;;;;;5043019;28;20024;-77
2023/10/21 04:43:58;;;;;;;5.40;3.13;;;13.90;99.90;;;;;;5076886;28;20032;-77
2023/10/21 04:46:24;;;;;;;6.07;2.97;;;13.90;99.90;;;;;;5042712;28;20093;-77
2023/10/21 04:48:51;;;;;;;6.57;3.13;;;13.80;99.90;;;;;;5059280;28;20025;-76
2023/10/21 04:51:17;;;;;;;5.50;2.97;;;13.80;99.90;;;;;;5076640;28;20097;-76
2023/10/21 04:53:42;;;;;;;7.18;3.85;;;13.80;99.90;;;;;;5055402;28;20049;-76
2023/10/21 04:56:08;;;;;;;10.85;3.40;;;13.90;99.90;;;;;;5055735;28;20033;-76
2023/10/21 04:58:34;;;;;;;9.80;3.53;;;13.90;99.90;;;;;;5055625;28;20049;-77
2023/10/21 05:00:59;;;;;;;6.20;2.97;;;14.00;99.90;;;;;;5055499;28;20026;-77
2023/10/21 05:03:25;;;;;;;10.27;3.35;;;14.00;99.90;;;;;;5056479;28;20026;-77
2023/10/21 05:05:50;;;;;;;5.60;2.88;;;13.90;99.90;;;;;;5055394;28;20056;-77
2023/10/21 05:08:17;;;;;;;5.55;3.05;;;14.00;99.90;;;;;;5038835;28;20044;-77
2023/10/21 05:10:42;;;;;;;6.68;2.67;;;14.00;99.90;;;;;;5022710;28;20034;-77
2023/10/21 05:13:08;;;;;;;5.38;3.15;;;14.00;99.90;;;;;;5038649;28;20124;-77
2023/10/21 05:15:36;;;;;;;3.83;2.53;;;14.00;99.90;;;;;;5038714;28;20034;-77
2023/10/21 05:18:03;;;;;;;9.48;3.58;;;14.00;99.90;;;;;;5055297;28;20021;-77
2023/10/21 05:20:28;;;;;;;5.35;3.13;;;14.00;99.90;;;;;;5022487;28;20029;-77
2023/10/21 05:22:54;;;;;;;4.57;2.42;;;14.00;99.90;;;;;;5055067;28;20085;-77
2023/10/21 05:25:20;;;;;;;4.82;2.88;;;14.00;99.90;;;;;;5054966;28;20025;-78
2023/10/21 05:27:45;;;;;;;9.00;3.30;;;14.00;99.90;;;;;;5054944;28;20030;-77
2023/10/21 05:30:12;;;;;;;4.40;2.55;;;14.00;99.90;;;;;;5055060;28;20057;-77
2023/10/21 05:32:38;;;;;;;7.05;2.70;;;14.00;99.90;;;;;;5055802;28;20064;-77
2023/10/21 05:35:07;;;;;;;6.95;2.80;;;14.00;99.90;;;;;;5038412;28;20025;-77
2023/10/21 05:37:33;;;;;;;5.80;2.85;;;14.00;99.90;;;;;;5055791;28;20543;-76
2023/10/21 05:39:58;;;;;;;6.65;2.78;;;13.90;99.90;;;;;;5054713;28;20026;-77
2023/10/21 05:42:25;;;;;;;6.03;2.30;;;14.00;99.90;;;;;;5055708;28;20035;-77
2023/10/21 05:44:51;;;;;;;6.95;3.22;;;13.90;99.90;;;;;;5038317;28;20025;-77
2023/10/21 05:47:16;;;;;;;6.03;3.10;;;13.90;99.90;;;;;;5054607;28;20080;-77
2023/10/21 05:49:42;;;;;;;7.40;2.63;;;14.00;99.90;;;;;;5055521;28;20033;-77
2023/10/21 05:52:07;;;;;;;6.68;2.90;;;13.90;99.90;;;;;;5037909;28;20049;-77
2023/10/21 05:54:33;;;;;;;4.50;2.65;;;13.90;99.90;;;;;;5054589;28;20033;-77
2023/10/21 05:56:59;;;;;;;7.45;3.25;;;13.90;99.90;;;;;;5021599;28;20100;-77
2023/10/21 05:59:24;;;;;;;8.15;3.10;;;13.90;99.90;;;;;;5055410;28;20085;-77
2023/10/21 06:01:50;;;;;;;7.68;3.15;;;13.90;99.90;;;;;;5037896;28;20045;-77
2023/10/21 06:04:16;;;;;;;5.88;2.50;;;13.90;99.90;;;;;;5021445;28;20029;-77
2023/10/21 06:06:41;;;;;;;6.47;3.17;;;13.90;99.90;;;;;;5021438;28;20033;-77
2023/10/21 06:09:09;;;;;;;7.25;3.10;;;13.90;99.90;;;;;;5054368;28;20040;-76
2023/10/21 06:11:35;;;;;;;7.45;2.80;;;13.90;99.90;;;;;;5054182;28;20499;-77
2023/10/21 06:14:01;;;;;;;8.35;3.45;;;14.00;99.90;;;;;;5037710;28;20029;-77
2023/10/21 06:16:26;;;;;;;7.72;3.22;;;14.00;99.90;;;;;;5054120;28;20052;-77
2023/10/21 06:18:53;;;;;;;5.78;3.17;;;14.00;99.90;;;;;;5054029;28;20029;-77
2023/10/21 06:21:18;;;;;;;4.82;3.08;;;14.00;99.90;;;;;;5037635;28;20026;-76
2023/10/21 06:23:44;;;;;;;7.57;3.60;;;14.00;99.90;;;;;;5054927;28;20030;-77
2023/10/21 06:26:11;;;;;;;7.60;3.92;;;14.10;99.90;;;;;;5021091;28;20021;-76
2023/10/21 06:28:38;;;;;;;6.95;3.10;;;14.10;99.90;;;;;;5054861;28;20018;-77
2023/10/21 06:31:04;;;;;;;5.47;3.22;;;14.10;99.90;;;;;;5037755;28;20028;-77
2023/10/21 06:33:30;;;;;;;9.45;2.92;;;14.10;99.90;;;;;;5037272;28;20029;-77
2023/10/21 06:35:55;;;;;;;4.18;2.80;;;14.10;99.90;;;;;;5054672;28;20029;-77
2023/10/21 06:38:21;;;;;;;5.35;2.97;;;14.20;99.90;;;;;;5053855;28;20030;-77
2023/10/21 06:40:47;;;;;;;9.10;3.40;;;14.20;99.90;;;;;;5037222;28;20026;-77
2023/10/21 06:43:12;;;;;;;5.05;3.00;;;14.20;99.90;;;;;;5053674;28;20037;-77
2023/10/21 06:45:38;;;;;;;10.93;3.85;;;14.20;99.90;;;;;;5053531;28;20056;-77
2023/10/21 06:48:04;;;;;;;7.50;2.80;;;14.30;99.90;;;;;;5053563;28;20049;-77
2023/10/21 06:50:31;;;;;;;5.60;2.92;;;14.30;99.90;;;;;;5020521;28;20025;-77
2023/10/21 06:52:57;;;;;;;7.40;3.38;;;14.30;99.90;;;;;;5067081;28;20044;-77
2023/10/21 06:55:24;;;;;;;9.52;3.60;;;14.40;99.90;;;;;;5056638;28;20045;-77
2023/10/21 06:57:53;;;;;;;4.47;2.72;;;14.40;99.90;;;;;;5040048;28;20055;-78
2023/10/21 07:00:18;;;;;;;5.28;2.88;;;14.40;99.90;;;;;;5056765;28;20036;-77
2023/10/21 07:02:44;;;;;;;5.13;2.40;;;14.30;99.90;;;;;;5074151;28;20029;-77
2023/10/21 07:05:10;;;;;;;5.47;2.42;;;14.30;99.90;;;;;;5056386;28;20029;-79
2023/10/21 07:07:40;;;;;;;3.17;2.20;;;14.40;99.90;;;;;;5040232;28;20055;-77
2023/10/21 07:10:07;;;;;;;5.22;2.10;;;14.40;99.90;;;;;;5073962;28;20017;-79
2023/10/21 07:12:34;;;;;;;4.07;1.88;;;14.40;99.90;;;;;;5056505;28;20025;-78
2023/10/21 07:15:00;;;;;;;2.95;2.25;;;14.30;99.90;;;;;;5056714;28;20021;-77
2023/10/21 07:17:26;;;;;;;2.70;2.00;;;14.40;99.90;;;;;;5039966;28;20101;-78
2023/10/21 07:19:51;;;;;;;5.15;2.03;;;14.40;99.90;;;;;;5056383;28;20118;-78
2023/10/21 07:22:17;;;;;;;4.32;2.17;;;14.40;99.90;;;;;;5056199;28;20047;-78
2023/10/21 07:24:43;;;;;;;3.38;1.80;;;14.40;99.90;;;;;;5056305;28;20431;-77
2023/10/21 07:27:08;;;;;;;3.60;2.40;;;14.40;99.90;;;;;;5039725;28;20037;-77
2023/10/21 07:29:34;;;;;;;4.40;1.98;;;14.40;99.90;;;;;;5039499;28;20060;-78
2023/10/21 07:31:59;;;;;;;5.57;1.70;;;14.40;99.90;;;;;;5039404;28;20037;-78
2023/10/21 07:34:25;;;;;;;3.67;1.48;;;14.50;99.90;;;;;;5056119;28;20025;-77
2023/10/21 07:36:51;;;;;;;2.65;1.23;;;14.40;99.90;;;;;;5073523;28;20039;-77
2023/10/21 07:39:18;;;;;;;3.42;1.13;;;14.40;99.90;;;;;;5055847;28;20029;-74
2023/10/21 07:41:44;;;;;;;2.97;1.30;;;14.40;99.90;;;;;;5039626;28;20044;-78
2023/10/21 07:44:11;;;;;;;2.63;1.23;;;14.30;99.90;;;;;;5039335;28;20036;-77
2023/10/21 07:46:37;;;;;;;2.97;1.58;;;14.30;99.90;;;;;;5056167;28;20025;-77
2023/10/21 07:49:06;;;;;;;2.92;1.50;;;14.20;99.90;;;;;;5055798;28;20039;-77
2023/10/21 07:51:32;;;;;;;0.82;0.70;;;14.20;99.90;;;;;;5023591;28;20094;-76
2023/10/21 07:53:58;;;;;;;1.20;1.00;;;14.20;99.90;;;;;;5055700;28;20029;-76
2023/10/21 07:56:24;;;;;;;1.58;0.68;;;14.10;99.90;;;;;;5055554;28;20032;-77
2023/10/21 07:58:49;;;;;;;2.60;1.00;;;14.10;99.90;;;;;;5039256;28;20028;-77
2023/10/21 08:01:15;;;;;;;1.50;0.85;;;14.10;99.90;;;;;;5022261;28;20563;-77
2023/10/21 08:03:40;;;;;;;1.52;1.00;;;14.10;99.90;;;;;;5055546;28;20037;-77
2023/10/21 08:06:07;;;;;;;1.92;0.93;;;14.00;99.90;;;;;;5022695;28;20029;-77
2023/10/21 08:08:33;;;;;;;1.38;0.85;;;14.00;99.90;;;;;;5055541;28;20036;-77
2023/10/21 08:11:04;;;;;;;2.28;1.05;;;14.00;99.90;;;;;;5055454;28;20065;-77
2023/10/21 08:13:30;;;;;;;0.80;0.70;;;14.10;99.90;;;;;;5039016;28;20100;-76
2023/10/21 08:15:56;;;;;;;2.13;1.00;;;14.10;99.90;;;;;;5055685;28;20047;-77
2023/10/21 08:18:25;;;;;;;1.00;0.70;;;14.10;99.90;;;;;;5055480;28;20036;-77
2023/10/21 08:20:51;;;;;;;1.42;0.70;;;14.20;99.90;;;;;;5055469;28;20029;-77
2023/10/21 08:23:17;;;;;;;1.25;0.80;;;14.40;99.90;;;;;;5038890;28;20051;-77
2023/10/21 08:25:42;;;;;;;0.43;0.40;;;14.40;99.90;;;;;;5039059;28;20021;-77
2023/10/21 08:28:08;;;;;;;0.85;0.50;;;14.50;99.90;;;;;;5038928;28;20065;-76
2023/10/21 08:30:36;;;;;;;0.77;0.50;;;14.50;99.90;;;;;;5038883;28;20036;-76
2023/10/21 08:33:03;;;;;;;3.35;0.70;;;14.50;99.90;;;;;;5055774;28;20115;-77
2023/10/21 08:35:28;;;;;;;0.77;0.47;;;14.50;99.90;;;;;;5055353;28;20025;-76
2023/10/21 08:37:54;;;;;;;1.58;0.50;;;14.50;99.90;;;;;;5022330;28;20089;-76
2023/10/21 08:40:20;;;;;;;0.88;0.57;;;14.40;99.90;;;;;;5055391;28;20057;-76
2023/10/21 08:42:47;;;;;;;0.50;0.50;;;14.40;99.90;;;;;;5055348;28;20080;-76
2023/10/21 08:45:16;;;;;;;0.55;0.40;;;14.50;99.90;;;;;;5055424;28;20029;-77
2023/10/21 08:47:44;;;;;;;1.85;0.50;;;14.50;99.90;;;;;;5039181;28;20036;-77
2023/10/21 08:50:10;;;;;;;1.23;0.40;;;14.50;99.90;;;;;;5039219;28;20052;-76
2023/10/21 08:52:37;;;;;;;0.50;0.40;;;14.50;99.90;;;;;;5055076;28;20048;-77
2023/10/21 08:55:05;;;;;;;2.13;0.68;;;14.50;99.90;;;;;;5038585;28;20017;-77
2023/10/21 08:57:31;;;;;;;1.27;0.47;;;14.60;99.90;;;;;;5039477;28;20025;-76
2023/10/21 08:59:57;;;;;;;0.60;0.40;;;14.60;99.30;;;;;;5072694;28;20085;-76
2023/10/21 09:02:25;;;;;;;0.88;0.40;;;14.60;99.30;;;;;;5022234;28;20479;-76
2023/10/21 09:04:50;;;;;;;2.05;0.40;;;14.60;99.10;;;;;;5054965;28;20060;-77
2023/10/21 09:07:16;;;;;;;2.95;0.45;;;14.70;99.60;;;;;;5038593;28;20029;-76
2023/10/21 09:09:41;;;;;;;3.10;0.70;;;14.90;99.50;;;;;;5055087;28;20046;-77
2023/10/21 09:12:11;;;;;;;1.50;0.60;;;15.00;99.10;;;;;;5055052;28;20042;-77
2023/10/21 09:14:55;;;;;;;1.83;0.50;;;15.10;98.10;;;;;;5076012;28;20021;-77
2023/10/21 09:17:32;;;;;;;1.70;0.50;;;15.10;97.90;;;;;;5059309;28;20036;-76
2023/10/21 09:19:58;;;;;;;2.67;0.50;;;15.00;97.30;;;;;;5060281;28;20029;-77
2023/10/21 09:22:27;;;;;;;0.38;0.32;;;15.00;97.60;;;;;;5041941;28;20025;-77
2023/10/21 09:25:15;;;;;;;2.63;0.50;;;14.90;97.70;;;;;;5058415;28;20025;-76
2023/10/21 09:27:45;;;;;;;0.60;0.30;;;14.90;97.80;;;;;;5076224;28;20090;-76
2023/10/21 09:30:18;;;;;;;1.40;0.43;;;14.90;97.10;;;;;;5025565;28;20036;-76
2023/10/21 09:32:44;;;;;;;1.55;0.50;;;14.90;97.40;;;;;;5075972;28;20093;-76
2023/10/21 09:35:21;;;;;;;2.92;0.43;;;15.00;97.80;;;;;;5075850;28;20021;-75
2023/10/21 09:37:50;;;;;;;0.35;0.35;;;15.10;97.80;;;;;;5058130;28;20032;-75
2023/10/21 09:40:17;;;;;;;0.85;0.40;;;15.20;97.00;;;;;;5058105;28;20031;-76
2023/10/21 09:42:44;;;;;;;1.17;0.45;;;15.30;97.30;;;;;;5058126;28;20028;-76
2023/10/21 09:45:11;;;;;;;1.67;0.50;;;15.30;96.90;;;;;;5075677;28;20013;-76
2023/10/21 09:47:42;;;;;;;1.25;0.50;;;15.20;96.40;;;;;;5041420;28;20035;-76
2023/10/21 09:50:10;;;;;;;1.45;0.50;;;15.30;97.40;;;;;;5057951;28;20128;-76
2023/10/21 09:53:06;;;;;;;1.38;0.77;;;15.30;96.90;;;;;;5057692;28;20108;-76
2023/10/21 09:55:32;;;;;;;1.45;0.30;;;15.40;96.50;;;;;;5057875;28;20082;-76
2023/10/21 09:57:58;;;;;;;1.30;0.43;;;15.50;97.00;;;;;;5057933;28;20045;-76
2023/10/21 10:00:25;;;;;;;0.60;0.30;;;15.40;95.70;;;;;;5075432;28;20093;-76
2023/10/21 10:02:53;;;;;;;2.30;0.50;;;15.40;95.60;;;;;;5075345;28;20041;-76
2023/10/21 10:05:20;;;;;;;1.00;0.52;;;15.50;95.60;;;;;;5057733;28;20021;-76
2023/10/21 10:07:47;;;;;;;0.90;0.22;;;15.50;94.60;;;;;;5057601;28;20032;-76
2023/10/21 10:10:15;;;;;;;0.40;0.40;;;15.50;94.60;;;;;;5057613;28;20040;-76
2023/10/21 10:13:02;;;;;;;1.60;0.45;;;15.50;94.90;;;;;;5057398;28;20032;-76
2023/10/21 10:15:32;;;;;;;2.05;0.43;;;15.60;94.60;;;;;;5075199;28;20040;-76
2023/10/21 10:18:19;;;;;;;3.22;0.88;;;15.60;93.80;;;;;;5075091;28;20025;-77
2023/10/21 10:20:51;;;;;;;2.38;0.55;;;15.60;94.10;;;;;;5075044;28;20021;-76
2023/10/21 10:23:19;;;;;;;4.47;0.67;;;15.60;93.40;;;;;;5074981;28;20024;-77
2023/10/21 10:25:49;;;;;;;1.50;0.57;;;15.50;93.50;;;;;;5056836;28;20270;-76
2023/10/21 10:28:17;;;;;;;2.75;0.57;;;15.40;93.10;;;;;;5057199;28;20029;-77
2023/10/21 10:30:46;;;;;;;1.45;0.60;;;15.30;93.60;;;;;;5074799;28;20025;-77
2023/10/21 10:33:22;;;;;;;1.63;0.68;;;15.40;94.10;;;;;;5040983;28;20032;-76
2023/10/21 10:35:58;;;;;;;5.15;0.98;;;15.40;93.50;;;;;;5074719;28;20017;-76
2023/10/21 10:38:31;;;;;;;1.25;0.50;;;15.40;93.00;;;;;;5040659;28;20064;-76
2023/10/21 10:41:06;;;;;;;1.75;0.45;;;15.50;92.80;;;;;;5074677;28;20013;-76
2023/10/21 10:43:54;;;;;;;1.30;0.70;;;15.60;93.40;;;;;;5074547;28;20033;-77
2023/10/21 10:46:24;;;;;;;4.32;0.60;;;15.70;92.90;;;;;;5056724;28;20033;-76
2023/10/21 10:48:50;;;;;;;2.50;0.40;;;15.70;92.40;;;;;;5056843;28;20039;-76
2023/10/21 10:51:19;;;;;;;1.95;0.38;;;15.60;92.00;;;;;;5074431;28;20021;-76
2023/10/21 10:53:56;;;;;;;2.50;0.65;;;15.50;92.80;;;;;;5057000;28;20052;-77
2023/10/21 10:56:25;;;;;;;2.50;0.57;;;15.60;93.40;;;;;;5056592;28;20032;-77
2023/10/21 10:58:52;;;;;;;2.83;0.70;;;15.80;93.50;;;;;;5074227;28;20024;-76
2023/10/21 11:01:25;;;;;;;1.58;0.50;;;16.00;93.00;;;;;;5074286;28;20031;-77
2023/10/21 11:04:08;;;;;;;5.18;0.60;;;16.20;92.90;;;;;;5024634;28;20043;-77
2023/10/21 11:06:36;;;;;;;0.95;0.55;;;16.20;91.00;;;;;;5040116;28;20052;-76
2023/10/21 11:09:07;;;;;;;1.45;0.40;;;16.10;90.80;;;;;;5056485;28;20057;-77
2023/10/21 11:11:54;;;;;;;3.67;0.95;;;16.20;92.10;;;;;;5040153;28;20032;-76
2023/10/21 11:14:20;;;;;;;1.80;0.50;;;16.30;91.70;;;;;;5040648;28;20021;-76
2023/10/21 11:16:49;;;;;;;1.52;0.43;;;16.50;91.60;;;;;;5039868;28;20029;-75
2023/10/21 11:19:15;;;;;;;1.95;0.30;;;16.50;90.50;;;;;;5056692;28;20021;-76
2023/10/21 11:21:48;;;;;;;4.22;0.95;;;16.50;91.00;;;;;;5023484;28;20025;-77
2023/10/21 11:24:14;;;;;;;1.98;0.60;;;16.60;90.40;;;;;;5073890;28;20071;-77
2023/10/21 11:26:41;;;;;;;2.78;0.65;;;16.60;89.40;;;;;;5056197;28;20100;-76
2023/10/21 11:29:07;;;;;;;2.72;0.70;;;16.50;88.90;;;;;;5056095;28;20088;-76
2023/10/21 11:31:34;;;;;;;4.15;0.70;;;16.60;90.50;;;;;;5039581;28;20029;-76
2023/10/21 11:34:09;;;;;;;2.10;0.40;;;16.60;90.40;;;;;;5055980;28;20021;-77
2023/10/21 11:36:36;;;;;;;2.72;0.93;;;16.60;90.30;;;;;;5055201;28;20024;-77
2023/10/21 11:39:12;;;;;;;2.65;0.77;;;16.60;90.30;;;;;;5055857;28;20036;-76
2023/10/21 11:41:43;;;;;;;2.08;0.60;;;16.60;89.50;;;;;;5040541;28;20025;-76
2023/10/21 11:44:09;;;;;;;3.40;0.82;;;16.40;88.10;;;;;;5055936;28;20021;-77
2023/10/21 11:46:37;;;;;;;3.00;0.73;;;16.40;89.40;;;;;;5055829;28;20028;-77
2023/10/21 11:49:04;;;;;;;5.03;0.70;;;16.50;89.70;;;;;;5073398;28;20017;-76
2023/10/21 11:51:30;;;;;;;1.92;0.50;;;16.70;88.80;;;;;;5023142;28;20020;-77
2023/10/21 11:53:56;;;;;;;3.55;0.80;;;16.80;88.80;;;;;;5073265;28;20048;-77
2023/10/21 12:37:37;;;;;;;3.70;0.80;;;15.90;90.90;;;;;;4972833;29;20031;-76
2023/10/21 12:42:50;;;;;;;2.72;0.38;;;16.00;90.40;;;;;;5073002;28;20043;-77
2023/10/21 12:45:19;;;;;;;1.50;0.68;;;15.90;89.10;;;;;;5072969;28;20029;-77
2023/10/21 12:47:48;;;;;;;4.07;0.70;;;16.10;90.30;;;;;;5023843;28;20381;-76
2023/10/21 12:50:14;;;;;;;1.90;0.40;;;16.20;88.00;;;;;;5076713;28;20020;-76
2023/10/21 12:52:41;;;;;;;2.72;0.95;;;16.30;89.30;;;;;;5076412;28;20061;-76
2023/10/21 12:55:13;;;;;;;6.15;1.02;;;16.40;89.70;;;;;;5059032;28;20013;-76
2023/10/21 12:57:39;;;;;;;3.80;0.57;;;16.50;89.10;;;;;;5043292;28;20083;-76
2023/10/21 13:00:05;;;;;;;3.50;0.80;;;16.60;88.80;;;;;;5042365;28;20025;-77
2023/10/21 13:02:35;;;;;;;4.10;0.80;;;16.60;89.40;;;;;;5058782;28;20036;-76
2023/10/21 13:05:05;;;;;;;7.43;0.63;;;16.60;87.60;;;;;;5043628;28;20021;-77
2023/10/21 13:07:31;;;;;;;4.30;0.77;;;16.70;87.80;;;;;;5076362;28;20031;-76
2023/10/21 13:10:00;;;;;;;3.25;1.27;;;16.80;87.00;;;;;;5042281;28;20025;-77
2023/10/21 13:12:26;;;;;;;3.00;1.00;;;16.90;88.30;;;;;;5076202;28;20029;-76
2023/10/21 13:14:54;;;;;;;2.00;0.47;;;17.00;87.80;;;;;;5058837;28;20064;-77
2023/10/21 13:17:20;;;;;;;2.70;0.77;;;17.20;84.40;;;;;;5026470;28;20021;-76
2023/10/21 13:19:46;;;;;;;5.18;0.88;;;17.40;83.60;;;;;;5076185;28;20025;-76
2023/10/21 13:22:11;;;;;;;2.95;0.85;;;17.80;83.60;;;;;;5042085;28;20021;-76
2023/10/21 13:24:37;;;;;;;2.72;0.80;;;18.10;81.30;;;;;;5041932;28;20036;-76
2023/10/21 13:27:06;;;;;;;4.53;0.57;;;18.40;78.60;;;;;;5058555;28;20029;-77
2023/10/21 13:29:32;;;;;;;4.07;0.73;;;18.40;78.40;;;;;;5058334;28;20025;-76